LHA4MK KBZN-KBFI
Flight info
| Callsign | LHA4MK |
|---|---|
| Flight time | N/A |
| Altitude | 38000 |
| Route | BGSKY2 HIA MLP GLASR3 |
| Aircraft | A320/M-SDE1E2FGIJ1RWYZE3/LB1 |
Departure
| Time | N/A |
|---|---|
| Airport | Bozeman Yellowstone International Airport (KBZN) |
Arrival
| Time | 2026-04-24 15:37 |
|---|---|
| Airport | King County International Airport - Boeing Field (KBFI) |
| Time | Latitude | Longitude | Altitude | Speed | Heading |
|---|---|---|---|---|---|
| 2026-04-24 15:31 | 47.37370 | -122.07468 | 2940 ft | 239 kts | 221° |
| 2026-04-24 15:32 | 47.36598 | -122.15286 | 3007 ft | 203 kts | 310° |
| 2026-04-24 15:33 | 47.40803 | -122.19960 | 2704 ft | 178 kts | 335° |
| 2026-04-24 15:33 | 47.43737 | -122.22434 | 2040 ft | 140 kts | 335° |
| 2026-04-24 15:34 | 47.45357 | -122.23798 | 1639 ft | 131 kts | 334° |
| 2026-04-24 15:35 | 47.47722 | -122.25788 | 1060 ft | 131 kts | 333° |
| 2026-04-24 15:35 | 47.49313 | -122.27130 | 670 ft | 132 kts | 331° |
| 2026-04-24 15:35 | 47.50115 | -122.27804 | 481 ft | 133 kts | 331° |
| 2026-04-24 15:36 | 47.50919 | -122.28481 | 308 ft | 133 kts | 330° |
| 2026-04-24 15:36 | 47.52513 | -122.29828 | 26 ft | 120 kts | 331° |
| 2026-04-24 15:36 | 47.53104 | -122.30331 | 23 ft | 74 kts | 330° |
| 2026-04-24 15:37 | 47.53368 | -122.30561 | 24 ft | 17 kts | 316° |
| 2026-04-24 15:37 | 47.53345 | -122.30678 | 24 ft | 13 kts | 188° |
| 2026-04-24 15:37 | 47.53275 | -122.30633 | 25 ft | 11 kts | 153° |
| 2026-04-24 15:37 | 47.53196 | -122.30568 | 23 ft | 15 kts | 151° |
| 2026-04-24 15:38 | 47.53098 | -122.30486 | 23 ft | 18 kts | 148° |
| 2026-04-24 15:38 | 47.52981 | -122.30379 | 23 ft | 21 kts | 149° |
| 2026-04-24 15:38 | 47.52842 | -122.30260 | 23 ft | 24 kts | 150° |
| 2026-04-24 15:38 | 47.52707 | -122.30145 | 23 ft | 22 kts | 148° |
| 2026-04-24 15:39 | 47.52583 | -122.30032 | 22 ft | 20 kts | 150° |
| 2026-04-24 15:39 | 47.52451 | -122.29927 | 23 ft | 23 kts | 150° |
| 2026-04-24 15:39 | 47.52302 | -122.29804 | 24 ft | 26 kts | 153° |
| 2026-04-24 15:39 | 47.52130 | -122.29674 | 24 ft | 29 kts | 151° |
| 2026-04-24 15:40 | 47.51961 | -122.29530 | 24 ft | 28 kts | 150° |
| 2026-04-24 15:40 | 47.51799 | -122.29393 | 24 ft | 24 kts | 150° |
| 2026-04-24 15:40 | 47.51672 | -122.29291 | 24 ft | 13 kts | 168° |
| 2026-04-24 15:40 | 47.51619 | -122.29365 | 25 ft | 9 kts | 234° |
| 2026-04-24 15:41 | 47.51562 | -122.29410 | 24 ft | 9 kts | 174° |
| 2026-04-24 15:41 | 47.51540 | -122.29402 | 25 ft | 1 kts | 159° |
| 2026-04-24 15:41 | 47.51529 | -122.29396 | 24 ft | 0 kts | 159° |
| 2026-04-24 15:41 | 47.51518 | -122.29389 | 26 ft | 3 kts | 159° |
| 2026-04-24 15:42 | 47.51510 | -122.29385 | 24 ft | 0 kts | 159° |
| 2026-04-24 15:43 | 47.51500 | -122.29376 | 24 ft | 3 kts | 151° |
| 2026-04-24 15:43 | 47.51469 | -122.29351 | 24 ft | 7 kts | 151° |
| 2026-04-24 15:43 | 47.51457 | -122.29286 | 24 ft | 7 kts | 74° |
| 2026-04-24 15:43 | 47.51468 | -122.29250 | 24 ft | 0 kts | 68° |